Time;durP1;ratioP1;P1;durP2;ratioP2;P2;SDS_P1;SDS_P2;PMS_P1;PMS_P2;Temp;Humidity;BMP_temperature;BMP_pressure;BME280_temperature;BME280_humidity;BME280_pressure;Samples;Min_cycle;Max_cycle;Signal;HPM_P1;HPM_P2
2021/09/15 00:01:39;;;;;;;5.70;4.77;;;;;;;24.67;53.19;96481.81;5093662;28;20247;-68
2021/09/15 00:04:04;;;;;;;4.80;4.40;;;;;;;24.67;53.32;96487.16;5092207;28;20182;-67
2021/09/15 00:06:30;;;;;;;5.07;4.57;;;;;;;24.66;53.32;96485.53;5091170;28;20205;-66
2021/09/15 00:08:55;;;;;;;4.50;4.10;;;;;;;24.64;53.81;96482.31;5091640;28;20540;-67
2021/09/15 00:11:23;;;;;;;8.40;5.10;;;;;;;24.54;53.93;96482.28;5092754;28;20178;-69
2021/09/15 00:13:48;;;;;;;5.40;4.67;;;;;;;24.54;54.35;96488.41;5092157;28;20643;-71
2021/09/15 00:16:14;;;;;;;9.27;5.13;;;;;;;24.54;54.47;96479.59;5082826;28;20443;-69
2021/09/15 00:18:39;;;;;;;6.27;5.03;;;;;;;24.49;54.67;96476.88;5089310;28;20182;-67
2021/09/15 00:21:05;;;;;;;5.17;4.67;;;;;;;24.55;54.81;96470.50;5091700;28;20236;-67
2021/09/15 00:23:30;;;;;;;5.53;5.03;;;;;;;24.55;54.67;96473.16;5091678;28;20180;-67
2021/09/15 00:25:56;;;;;;;6.13;5.00;;;;;;;24.58;54.73;96471.84;5090795;28;20266;-68
2021/09/15 00:28:21;;;;;;;5.33;4.83;;;;;;;24.59;54.64;96474.25;5091517;28;20181;-67
2021/09/15 00:30:47;;;;;;;6.50;5.20;;;;;;;24.60;54.55;96475.06;5091622;28;20177;-68
2021/09/15 00:33:13;;;;;;;5.10;4.70;;;;;;;24.60;54.54;96469.72;5090398;28;20188;-69
2021/09/15 00:35:38;;;;;;;7.70;5.00;;;;;;;24.57;54.33;96468.38;5094351;28;20201;-65
2021/09/15 00:38:04;;;;;;;5.47;4.40;;;;;;;24.58;54.32;96466.47;5091065;28;20715;-68
2021/09/15 00:40:29;;;;;;;7.40;4.33;;;;;;;24.57;54.82;96465.69;5092263;28;20177;-68
2021/09/15 00:42:55;;;;;;;5.13;4.73;;;;;;;24.56;54.96;96465.94;5090173;28;20262;-70
2021/09/15 00:45:21;;;;;;;5.90;5.30;;;;;;;24.53;55.35;96470.75;5089962;28;20683;-68
2021/09/15 00:47:46;;;;;;;5.93;4.80;;;;;;;24.47;55.88;96477.16;5087705;28;20199;-66
2021/09/15 00:50:12;;;;;;;8.73;5.30;;;;;;;24.46;56.04;96464.00;5091007;28;20169;-66
2021/09/15 00:52:38;;;;;;;6.93;5.47;;;;;;;24.37;56.50;96466.38;5090429;28;20260;-67
2021/09/15 00:55:04;;;;;;;7.27;5.23;;;;;;;24.43;56.52;96453.81;5090801;28;20676;-68
2021/09/15 00:57:30;;;;;;;7.50;5.37;;;;;;;24.43;57.44;96451.16;5091377;28;20883;-67
2021/09/15 00:59:55;;;;;;;6.53;5.30;;;;;;;24.43;57.15;96459.19;5091281;28;20535;-66
2021/09/15 01:02:21;;;;;;;11.77;5.70;;;;;;;24.39;57.37;96458.88;5091400;28;20560;-66
2021/09/15 01:04:46;;;;;;;5.33;4.83;;;;;;;24.36;57.56;96449.50;5089762;28;20173;-67
2021/09/15 01:07:12;;;;;;;7.80;5.50;;;;;;;24.36;57.56;96454.84;5090672;28;20185;-68
2021/09/15 01:09:38;;;;;;;12.90;5.17;;;;;;;24.34;57.48;96450.84;5090070;28;20186;-66
2021/09/15 01:12:04;;;;;;;6.47;5.60;;;;;;;24.23;57.91;96455.31;5089869;28;20220;-68
2021/09/15 01:14:29;;;;;;;6.40;5.40;;;;;;;24.25;57.82;96452.41;5088509;28;20178;-69
2021/09/15 01:17:00;;;;;;;8.00;6.10;;;;;;;24.23;57.80;96448.09;5090714;28;20201;-68
2021/09/15 01:19:26;;;;;;;9.30;5.57;;;;;;;24.20;57.79;96448.63;5088528;28;20273;-67
2021/09/15 01:21:55;;;;;;;7.03;5.70;;;;;;;24.17;58.55;96442.97;5089391;28;20817;-69
2021/09/15 01:24:23;;;;;;;6.57;6.00;;;;;;;24.01;58.59;96439.38;5091095;28;20415;-67
2021/09/15 01:26:48;;;;;;;6.60;6.00;;;;;;;24.07;58.01;96441.81;5091019;28;20475;-69
2021/09/15 01:29:16;;;;;;;8.10;6.00;;;;;;;23.99;58.48;96439.66;5055845;28;20451;-67
2021/09/15 01:32:04;;;;;;;6.53;5.90;;;;;;;24.08;58.31;96431.94;5089708;28;20192;-67
2021/09/15 01:34:35;;;;;;;7.13;5.70;;;;;;;24.12;58.44;96432.22;5083784;28;20420;-67
2021/09/15 01:37:01;;;;;;;6.57;5.70;;;;;;;24.12;58.21;96432.22;5072610;28;20528;-67
2021/09/15 01:39:27;;;;;;;8.03;6.10;;;;;;;24.11;57.99;96435.97;5090894;28;20518;-67
2021/09/15 01:41:57;;;;;;;6.83;6.13;;;;;;;24.09;57.77;96433.56;5089491;28;20455;-67
2021/09/15 01:44:49;;;;;;;7.23;6.20;;;;;;;24.08;58.20;96434.63;5089883;28;20188;-68
2021/09/15 01:47:17;;;;;;;6.27;5.67;;;;;;;24.03;57.81;96434.56;5088940;28;20427;-68
2021/09/15 01:49:43;;;;;;;7.40;6.17;;;;;;;24.02;57.72;96433.78;5088468;28;21032;-64
2021/09/15 01:52:10;;;;;;;8.10;5.97;;;;;;;23.96;57.47;96423.31;5096316;28;20543;-67
2021/09/15 01:54:36;;;;;;;6.37;5.80;;;;;;;23.90;57.56;96425.91;5092534;28;20436;-68
2021/09/15 01:57:02;;;;;;;6.10;5.53;;;;;;;23.75;57.92;96420.47;5090891;28;20860;-67
2021/09/15 01:59:28;;;;;;;7.83;6.40;;;;;;;23.86;57.41;96419.47;5094011;28;20182;-67
2021/09/15 02:01:53;;;;;;;11.47;5.83;;;;;;;23.96;57.05;96412.59;5093964;28;20516;-68
2021/09/15 02:04:19;;;;;;;11.33;6.17;;;;;;;23.97;57.07;96409.66;5094869;28;20743;-67
2021/09/15 02:06:44;;;;;;;8.00;5.87;;;;;;;23.98;56.76;96416.63;5094762;28;20217;-66
2021/09/15 02:09:10;;;;;;;8.60;6.30;;;;;;;23.97;56.95;96416.88;5094508;28;20174;-68
2021/09/15 02:11:38;;;;;;;8.10;5.53;;;;;;;23.93;57.11;96413.91;5092392;28;20550;-70
2021/09/15 02:14:04;;;;;;;6.10;5.50;;;;;;;23.89;57.28;96402.09;5094140;28;20714;-67
2021/09/15 02:16:29;;;;;;;7.13;5.73;;;;;;;23.89;57.02;96404.75;5094671;28;20447;-67
2021/09/15 02:18:55;;;;;;;8.17;5.83;;;;;;;23.89;56.81;96405.56;5089542;28;20216;-67
2021/09/15 02:21:21;;;;;;;6.40;5.80;;;;;;;23.89;57.10;96404.75;5094411;28;20656;-68
2021/09/15 02:23:46;;;;;;;6.43;5.70;;;;;;;23.75;57.13;96407.88;5095462;28;20620;-67
2021/09/15 02:26:13;;;;;;;6.60;5.70;;;;;;;23.60;57.90;96400.56;5102187;28;20197;-67
2021/09/15 02:28:39;;;;;;;6.47;5.87;;;;;;;23.70;57.74;96399.81;5095769;28;20264;-67
2021/09/15 02:31:06;;;;;;;12.30;5.40;;;;;;;23.62;57.99;96398.44;5093370;28;20499;-69
2021/09/15 02:33:32;;;;;;;8.90;6.20;;;;;;;23.62;58.14;96395.75;5093095;28;20448;-67
2021/09/15 02:35:57;;;;;;;12.03;6.43;;;;;;;23.46;58.57;96400.16;5093729;28;20467;-68
2021/09/15 02:38:23;;;;;;;8.57;5.60;;;;;;;23.45;58.58;96398.53;5092570;28;20197;-69
2021/09/15 02:40:48;;;;;;;8.07;5.67;;;;;;;23.63;58.00;96394.69;5093967;28;20586;-68
2021/09/15 02:43:14;;;;;;;6.63;5.90;;;;;;;23.62;58.22;96397.63;5093678;28;20192;-68
2021/09/15 02:45:40;;;;;;;7.27;6.00;;;;;;;23.66;57.66;96398.72;5093948;28;20209;-67
2021/09/15 02:48:06;;;;;;;7.93;6.53;;;;;;;23.61;57.91;96393.34;5090581;28;20255;-67
2021/09/15 02:50:32;;;;;;;8.67;5.97;;;;;;;23.58;57.83;96391.16;5093246;28;20220;-67
2021/09/15 02:52:57;;;;;;;8.10;6.10;;;;;;;23.51;58.23;96395.94;5093813;28;20420;-67
2021/09/15 02:55:24;;;;;;;6.60;5.90;;;;;;;23.47;58.45;96399.09;5093348;28;20201;-68
2021/09/15 02:57:50;;;;;;;12.57;6.53;;;;;;;23.42;58.14;96388.38;5092711;28;20261;-66
2021/09/15 03:00:15;;;;;;;9.50;6.27;;;;;;;23.55;58.01;96391.69;5092711;28;20430;-67
2021/09/15 03:02:41;;;;;;;7.87;6.47;;;;;;;23.68;57.66;96391.25;5094394;28;20289;-66
2021/09/15 03:05:07;;;;;;;8.40;6.00;;;;;;;23.71;57.39;96388.06;5093688;28;20198;-68
2021/09/15 03:07:33;;;;;;;8.60;5.77;;;;;;;23.69;57.55;96389.38;5092792;28;20458;-68
2021/09/15 03:09:58;;;;;;;7.37;6.00;;;;;;;23.63;57.74;96385.88;5093120;28;20457;-67
2021/09/15 03:12:24;;;;;;;6.00;5.40;;;;;;;23.61;57.75;96385.31;5093408;28;20202;-67
2021/09/15 03:14:50;;;;;;;7.73;6.10;;;;;;;23.49;57.97;96384.69;5091908;28;20186;-67
2021/09/15 03:17:15;;;;;;;6.93;5.93;;;;;;;23.40;57.88;96379.81;5093081;28;20209;-68
2021/09/15 03:19:41;;;;;;;8.33;5.67;;;;;;;23.49;57.48;96382.81;5090841;28;20186;-67
2021/09/15 03:22:06;;;;;;;5.97;5.07;;;;;;;23.45;57.80;96376.38;5093465;28;20202;-67
2021/09/15 03:24:32;;;;;;;8.57;5.67;;;;;;;23.37;57.66;96374.19;5093984;28;20190;-68
2021/09/15 03:26:58;;;;;;;7.20;5.03;;;;;;;23.56;57.49;96375.38;5104590;28;20197;-68
2021/09/15 03:29:24;;;;;;;6.80;5.53;;;;;;;23.53;57.63;96377.78;5103991;28;20186;-68
2021/09/15 03:31:55;;;;;;;9.63;5.90;;;;;;;23.47;57.78;96382.28;5103770;28;20459;-69
2021/09/15 03:34:20;;;;;;;6.43;4.77;;;;;;;23.33;58.39;96384.53;5087385;28;20178;-67
2021/09/15 03:36:46;;;;;;;9.93;5.73;;;;;;;23.39;58.77;96378.19;5103867;28;20470;-66
2021/09/15 03:39:14;;;;;;;5.97;5.40;;;;;;;23.44;58.87;96375.53;5104286;28;20178;-67
2021/09/15 03:41:39;;;;;;;6.30;5.10;;;;;;;23.14;59.94;96376.88;5104114;28;20213;-66
2021/09/15 03:44:05;;;;;;;6.40;5.80;;;;;;;23.13;60.24;96369.94;5099848;28;20451;-67
2021/09/15 03:46:31;;;;;;;6.63;5.70;;;;;;;23.15;60.01;96370.47;5091290;28;20201;-68
2021/09/15 03:48:56;;;;;;;6.47;5.23;;;;;;;23.05;60.18;96366.91;5090592;28;20177;-66
2021/09/15 03:51:22;;;;;;;7.30;5.60;;;;;;;22.97;60.67;96373.50;5092627;28;20182;-66
2021/09/15 03:53:47;;;;;;;6.13;5.53;;;;;;;23.22;59.92;96364.13;5091262;28;20223;-68
2021/09/15 03:56:13;;;;;;;7.70;5.57;;;;;;;23.06;60.31;96371.97;5092102;28;20711;-66
2021/09/15 03:58:38;;;;;;;6.67;5.50;;;;;;;23.02;60.67;96362.88;5091999;28;20327;-64
2021/09/15 04:01:04;;;;;;;6.73;5.70;;;;;;;22.86;61.10;96359.25;5091743;28;20194;-67
2021/09/15 04:03:30;;;;;;;6.17;5.23;;;;;;;22.88;61.36;96362.47;5084807;28;20213;-68
2021/09/15 04:05:55;;;;;;;6.43;5.37;;;;;;;22.97;61.21;96362.81;5089321;28;20704;-67
2021/09/15 04:08:21;;;;;;;6.93;5.10;;;;;;;22.96;61.08;96366.53;5091551;28;20604;-68
2021/09/15 04:10:46;;;;;;;7.40;5.43;;;;;;;22.71;62.01;96367.91;5091068;28;20178;-67
2021/09/15 04:13:12;;;;;;;8.00;6.17;;;;;;;22.81;61.79;96373.34;5091763;28;20729;-67
2021/09/15 04:15:37;;;;;;;6.50;5.13;;;;;;;22.74;61.84;96378.09;5092075;28;20245;-67
2021/09/15 04:18:03;;;;;;;9.73;5.70;;;;;;;22.86;61.03;96381.41;5091135;28;20219;-66
2021/09/15 04:20:29;;;;;;;10.43;5.50;;;;;;;22.85;61.05;96385.16;5090096;28;20189;-69
2021/09/15 04:22:54;;;;;;;11.10;5.20;;;;;;;22.88;60.79;96388.38;5091662;28;20202;-67
2021/09/15 04:31:21;;;;;;;7.60;5.60;;;;;;;22.86;60.84;96388.63;5070691;28;20809;-66
2021/09/15 04:33:47;;;;;;;5.47;4.63;;;;;;;23.04;60.54;96387.47;5082941;28;20838;-64
2021/09/15 04:36:13;;;;;;;5.77;5.17;;;;;;;22.97;60.92;96395.69;5090961;28;20442;-67
2021/09/15 04:38:38;;;;;;;6.40;4.97;;;;;;;23.09;60.38;96400.09;5090122;28;20189;-66
2021/09/15 04:41:04;;;;;;;5.87;4.90;;;;;;;;;;5090708;28;20296;-66
2021/09/15 04:43:30;;;;;;;6.13;4.77;;;;;;;22.89;60.94;96403.34;5091460;28;20178;-68
2021/09/15 04:45:55;;;;;;;11.33;5.07;;;;;;;22.91;60.97;96398.56;5090550;28;20208;-67
2021/09/15 04:48:21;;;;;;;8.27;4.87;;;;;;;22.94;61.26;96401.53;5089378;28;20181;-67
2021/09/15 04:50:46;;;;;;;10.90;5.60;;;;;;;22.79;61.74;96404.84;5091148;28;20207;-68
2021/09/15 04:53:12;;;;;;;7.87;5.47;;;;;;;22.99;61.56;96400.78;5091208;28;20174;-68
2021/09/15 04:55:38;;;;;;;7.73;5.20;;;;;;;22.69;62.33;96423.41;5090775;28;20219;-68
2021/09/15 04:58:04;;;;;;;6.03;5.27;;;;;;;22.55;62.90;96423.81;5089729;28;20186;-68
2021/09/15 05:00:31;;;;;;;9.70;5.20;;;;;;;22.81;62.74;96425.97;5091463;28;20264;-67
2021/09/15 05:02:57;;;;;;;10.87;5.50;;;;;;;22.37;65.03;96426.72;5089406;28;21042;-68
2021/09/15 05:05:22;;;;;;;9.67;5.57;;;;;;;22.45;65.25;96428.19;5061502;28;20466;-66
2021/09/15 05:07:48;;;;;;;6.77;6.10;;;;;;;22.45;65.92;96430.88;5086691;28;20415;-65
2021/09/15 05:10:14;;;;;;;6.30;5.63;;;;;;;22.57;65.36;96436.91;5082475;28;20170;-66
2021/09/15 05:12:39;;;;;;;14.20;6.03;;;;;;;22.09;67.40;96439.97;5091439;28;20261;-69
2021/09/15 05:15:06;;;;;;;8.33;6.37;;;;;;;21.55;69.96;96437.75;5090797;28;20197;-67
2021/09/15 05:17:32;;;;;;;8.37;5.43;;;;;;;21.57;71.15;96434.88;5088061;28;20527;-66
2021/09/15 05:19:57;;;;;;;9.10;6.10;;;;;;;22.10;68.79;96438.09;5090703;28;20448;-67
2021/09/15 05:22:23;;;;;;;10.60;6.23;;;;;;;22.06;68.54;96439.63;5091268;28;20709;-67
2021/09/15 05:24:48;;;;;;;9.50;6.40;;;;;;;21.84;69.84;96440.41;5090296;28;20180;-67
2021/09/15 05:27:14;;;;;;;10.63;6.00;;;;;;;22.18;68.56;96435.00;5089109;28;20678;-68
2021/09/15 05:29:40;;;;;;;8.83;6.70;;;;;;;22.24;68.50;96430.59;5090510;28;20230;-66
2021/09/15 05:32:05;;;;;;;9.00;6.57;;;;;;;21.49;72.02;96438.75;5090422;28;20512;-67
2021/09/15 05:34:31;;;;;;;8.13;6.10;;;;;;;21.91;70.32;96434.91;5065100;28;20204;-66
2021/09/15 05:36:57;;;;;;;14.57;6.10;;;;;;;21.91;70.65;96438.38;5093763;28;20258;-66
2021/09/15 05:39:22;;;;;;;9.87;6.50;;;;;;;22.18;69.17;96432.34;5094429;28;20182;-66
2021/09/15 05:41:48;;;;;;;7.40;6.63;;;;;;;22.29;68.93;96424.50;5092042;28;20259;-67
2021/09/15 05:44:13;;;;;;;11.00;6.60;;;;;;;22.21;69.23;96439.06;5094347;28;20186;-67
2021/09/15 05:46:39;;;;;;;9.70;6.77;;;;;;;22.34;69.12;96436.06;5094587;28;20193;-67
2021/09/15 05:49:05;;;;;;;10.57;6.30;;;;;;;22.20;69.99;96432.91;5094828;28;20710;-66
2021/09/15 05:51:30;;;;;;;12.33;7.17;;;;;;;22.37;69.35;96437.41;5094953;28;20177;-66
2021/09/15 05:53:56;;;;;;;8.50;6.60;;;;;;;22.33;69.39;96433.63;5093667;28;20181;-67
2021/09/15 05:56:22;;;;;;;10.60;6.90;;;;;;;22.36;69.06;96439.28;5094861;28;20214;-68
2021/09/15 05:58:47;;;;;;;9.50;6.40;;;;;;;22.35;69.37;96444.84;5094944;28;20182;-66
2021/09/15 06:01:13;;;;;;;7.67;6.80;;;;;;;22.24;69.85;96447.38;5095058;28;20194;-66
2021/09/15 06:03:38;;;;;;;15.23;7.20;;;;;;;22.25;69.93;96446.34;5094855;28;20231;-66
2021/09/15 06:06:04;;;;;;;11.10;7.63;;;;;;;22.12;70.46;96449.34;5096660;28;20204;-67
2021/09/15 06:08:30;;;;;;;8.10;6.83;;;;;;;22.17;70.19;96449.44;5095294;28;20185;-64
2021/09/15 06:10:56;;;;;;;8.00;6.80;;;;;;;22.16;70.53;96447.00;5095649;28;20232;-67
2021/09/15 06:13:22;;;;;;;13.13;6.80;;;;;;;22.14;70.67;96447.25;5085785;28;20177;-65
2021/09/15 06:15:48;;;;;;;13.57;6.87;;;;;;;21.94;71.31;96448.53;5094640;28;20792;-66
2021/09/15 06:18:14;;;;;;;20.13;8.47;;;;;;;22.08;71.15;96450.88;5085558;28;20970;-68
2021/09/15 06:20:40;;;;;;;7.97;6.70;;;;;;;22.05;71.49;96454.84;5097025;28;20514;-67
2021/09/15 06:23:05;;;;;;;7.10;6.50;;;;;;;22.11;71.00;96450.41;5093661;28;20285;-68
2021/09/15 06:25:31;;;;;;;7.23;6.47;;;;;;;22.16;70.84;96455.00;5095276;28;20209;-69
2021/09/15 06:27:57;;;;;;;10.47;7.67;;;;;;;22.10;71.07;96454.13;5094046;28;20407;-66
2021/09/15 06:30:23;;;;;;;10.43;7.40;;;;;;;22.08;71.24;96445.53;5093847;28;20188;-67
2021/09/15 06:32:49;;;;;;;9.27;7.60;;;;;;;22.21;70.70;96450.53;5093015;28;20286;-67
2021/09/15 06:35:14;;;;;;;10.53;7.10;;;;;;;22.05;70.93;96448.72;5093689;28;20877;-67
2021/09/15 06:37:41;;;;;;;9.77;7.10;;;;;;;22.13;70.83;96448.28;5093184;28;20733;-68
2021/09/15 06:40:07;;;;;;;8.27;7.47;;;;;;;22.15;70.81;96450.72;5093295;28;20185;-67
2021/09/15 06:42:32;;;;;;;9.90;6.80;;;;;;;21.97;71.08;96451.78;5068709;28;20458;-67
2021/09/15 06:44:58;;;;;;;9.60;7.40;;;;;;;21.89;71.34;96443.16;5090864;28;20424;-67
2021/09/15 06:47:23;;;;;;;14.20;7.60;;;;;;;21.96;71.29;96452.84;5093172;28;20261;-67
2021/09/15 06:49:49;;;;;;;10.17;7.00;;;;;;;21.81;71.84;96434.75;5093466;28;20264;-66
2021/09/15 06:52:15;;;;;;;11.03;9.00;;;;;;;21.83;72.07;96441.44;5092574;28;20540;-68
2021/09/15 06:54:40;;;;;;;8.50;6.97;;;;;;;21.93;71.58;96427.47;5093361;28;20185;-67
2021/09/15 06:57:06;;;;;;;8.70;6.70;;;;;;;22.15;70.95;96424.84;5093174;28;20263;-68
2021/09/15 06:59:31;;;;;;;9.60;7.07;;;;;;;22.15;70.37;96422.19;5092658;28;20182;-68
2021/09/15 07:01:57;;;;;;;9.93;7.00;;;;;;;22.22;70.20;96425.47;5092798;28;20201;-67
2021/09/15 07:04:23;;;;;;;9.00;6.60;;;;;;;21.95;71.15;96425.38;5093448;28;20272;-67
2021/09/15 07:06:48;;;;;;;14.50;8.17;;;;;;;22.07;71.17;96412.72;5093139;28;20289;-71
2021/09/15 07:09:14;;;;;;;9.50;6.20;;;;;;;22.28;70.35;96412.22;5093186;28;20177;-69
2021/09/15 07:11:39;;;;;;;7.63;6.30;;;;;;;22.23;70.28;96400.41;5092857;28;20204;-69
2021/09/15 07:14:05;;;;;;;8.67;6.23;;;;;;;22.37;69.81;96410.72;5084948;28;20223;-65
2021/09/15 07:16:31;;;;;;;13.63;6.60;;;;;;;22.29;70.05;96409.28;5093714;28;20205;-66
2021/09/15 07:18:57;;;;;;;13.63;6.67;;;;;;;22.21;70.25;96415.84;5091834;28;20184;-67
2021/09/15 07:21:23;;;;;;;9.00;6.13;;;;;;;22.38;69.90;96417.69;5092719;28;20448;-65
2021/09/15 07:23:48;;;;;;;11.37;6.33;;;;;;;22.18;70.01;96424.34;5084684;28;20522;-67
2021/09/15 07:26:14;;;;;;;11.23;4.70;;;;;;;21.61;71.37;96426.19;5053739;28;20198;-64
2021/09/15 07:28:39;;;;;;;5.80;4.10;;;;;;;21.34;71.86;96425.97;5087059;28;20189;-66
2021/09/15 07:31:05;;;;;;;10.80;4.70;;;;;;;21.21;73.13;96421.75;5098644;28;20277;-64
2021/09/15 07:33:33;;;;;;;7.60;4.20;;;;;;;21.13;73.91;96430.94;5090809;28;20527;-67
2021/09/15 07:36:03;;;;;;;6.53;4.77;;;;;;;21.26;73.36;96429.84;5091052;28;20456;-69
2021/09/15 07:38:29;;;;;;;10.10;5.10;;;;;;;21.33;73.72;96438.47;5080841;28;20428;-66
2021/09/15 07:40:55;;;;;;;7.57;4.33;;;;;;;21.30;73.79;96449.59;5081721;28;20458;-66
2021/09/15 07:43:21;;;;;;;9.50;4.60;;;;;;;21.42;73.38;96438.09;5087810;28;20954;-66
2021/09/15 07:45:46;;;;;;;9.63;4.87;;;;;;;21.04;74.49;96431.56;5092606;28;20627;-64
2021/09/15 07:48:12;;;;;;;9.93;5.43;;;;;;;21.06;73.84;96434.78;5093269;28;20174;-65
2021/09/15 07:50:38;;;;;;;10.90;5.30;;;;;;;21.08;74.12;96427.38;5093531;28;20522;-67
2021/09/15 07:53:03;;;;;;;7.90;6.10;;;;;;;21.43;73.14;96429.03;5091030;28;20174;-66
2021/09/15 07:55:29;;;;;;;10.47;4.70;;;;;;;21.26;73.03;96429.00;5091442;28;20197;-67
2021/09/15 07:57:54;;;;;;;7.63;5.20;;;;;;;21.75;72.26;96428.53;5092174;28;20675;-67
2021/09/15 08:00:21;;;;;;;11.43;5.00;;;;;;;21.92;71.31;96436.50;5092380;28;20192;-67
2021/09/15 08:02:47;;;;;;;7.33;4.97;;;;;;;21.76;71.27;96438.16;5092612;28;20215;-66
2021/09/15 08:05:13;;;;;;;8.00;5.23;;;;;;;22.11;70.42;96455.72;5092526;28;20439;-66
2021/09/15 08:07:39;;;;;;;5.70;5.20;;;;;;;21.73;71.98;96457.28;5092519;28;20976;-65
2021/09/15 08:10:05;;;;;;;7.23;4.63;;;;;;;21.48;73.07;96455.78;5092461;28;20511;-66
2021/09/15 08:12:31;;;;;;;24.20;5.30;;;;;;;21.98;70.90;96453.41;5086641;28;20178;-67
2021/09/15 08:14:57;;;;;;;10.90;4.93;;;;;;;21.35;73.09;96464.91;5092431;28;20435;-65
2021/09/15 08:17:22;;;;;;;9.97;5.90;;;;;;;21.55;72.69;96468.97;5092148;28;20660;-66
2021/09/15 08:19:48;;;;;;;7.70;4.90;;;;;;;21.84;71.19;96466.25;5091658;28;20546;-65
2021/09/15 08:22:13;;;;;;;7.83;5.27;;;;;;;21.89;71.17;96472.50;5092050;28;20266;-65
2021/09/15 08:24:39;;;;;;;7.27;5.30;;;;;;;21.87;71.23;96471.09;5092394;28;20189;-65
2021/09/15 08:27:05;;;;;;;9.20;5.60;;;;;;;22.30;69.38;96474.94;5091612;28;20676;-65
2021/09/15 08:29:30;;;;;;;5.60;4.70;;;;;;;22.35;69.33;96480.38;5091577;28;20208;-63
2021/09/15 08:31:56;;;;;;;7.83;5.23;;;;;;;22.18;70.18;96492.91;5091701;28;20182;-65
2021/09/15 08:34:21;;;;;;;6.90;5.40;;;;;;;22.27;70.50;96507.44;5092018;28;20178;-66
2021/09/15 08:36:47;;;;;;;6.03;5.00;;;;;;;22.32;70.63;96507.53;5091170;28;20274;-65
2021/09/15 08:39:13;;;;;;;8.83;5.10;;;;;;;22.15;71.19;96514.75;5091210;28;20173;-64
2021/09/15 08:41:39;;;;;;;9.20;5.93;;;;;;;22.20;71.47;96504.16;5091443;28;20563;-66
2021/09/15 08:44:06;;;;;;;8.07;5.73;;;;;;;21.71;73.26;96494.03;5091064;28;20297;-65
2021/09/15 08:46:32;;;;;;;11.27;7.43;;;;;;;21.94;72.54;96503.75;5088212;28;20448;-65
2021/09/15 08:48:59;;;;;;;11.40;6.17;;;;;;;22.24;71.39;96503.41;5089387;28;20190;-66
2021/09/15 08:51:26;;;;;;;8.50;5.83;;;;;;;22.09;71.95;96493.34;5091297;28;20424;-67
2021/09/15 08:53:53;;;;;;;14.50;8.60;;;;;;;22.21;71.29;96501.25;5091087;28;20484;-65
2021/09/15 08:56:18;;;;;;;11.87;7.80;;;;;;;22.23;71.24;96491.13;5090909;28;20464;-66
2021/09/15 08:58:44;;;;;;;13.47;5.63;;;;;;;21.98;71.66;96501.41;5090672;28;20495;-65
2021/09/15 09:01:14;;;;;;;15.07;6.73;;;;;;;21.87;71.61;96495.91;5090677;28;20463;-66
2021/09/15 09:03:41;;;;;;;13.73;6.40;;;;;;;21.92;71.77;96493.34;5091070;28;20182;-66
2021/09/15 09:06:10;;;;;;;11.30;7.43;;;;;;;22.18;70.96;96498.25;5090497;28;20819;-66
2021/09/15 09:08:40;;;;;;;9.13;6.30;;;;;;;21.92;71.45;96501.34;5090635;28;20506;-66
2021/09/15 09:11:07;;;;;;;11.53;5.90;;;;;;;22.00;71.06;96509.97;5090610;28;20447;-66
2021/09/15 09:13:46;;;;;;;8.33;5.70;;;;;;;22.09;70.43;96506.69;5082603;28;20432;-65
2021/09/15 09:16:12;;;;;;;10.37;6.13;;;;;;;22.09;70.48;96503.19;5072582;28;20510;-64
2021/09/15 09:18:56;;;;;;;5.20;4.70;;;;;;;22.02;70.42;96505.22;5090259;28;20489;-65
2021/09/15 09:21:29;;;;;;;10.13;5.83;;;;;;;22.01;69.98;96499.06;5090819;28;20266;-65
2021/09/15 09:23:56;;;;;;;11.37;5.40;;;;;;;22.35;69.29;96514.25;5089111;28;20579;-66
2021/09/15 09:26:22;;;;;;;5.70;4.70;;;;;;;22.19;69.86;96499.88;5089103;28;20443;-66
2021/09/15 09:28:47;;;;;;;8.70;5.50;;;;;;;22.18;69.16;96506.25;5089190;28;20514;-65
2021/09/15 09:31:13;;;;;;;10.17;5.93;;;;;;;22.05;69.76;96499.41;5091599;28;20177;-66
2021/09/15 09:33:39;;;;;;;7.97;5.60;;;;;;;22.23;68.96;96501.00;5090536;28;20543;-65
2021/09/15 09:36:09;;;;;;;9.40;5.17;;;;;;;22.29;68.55;96493.88;5092782;28;20205;-65
2021/09/15 09:38:44;;;;;;;6.53;5.20;;;;;;;22.29;69.00;96497.34;5093522;28;20190;-65
2021/09/15 09:41:19;;;;;;;10.17;5.70;;;;;;;22.38;68.63;96495.06;5093489;28;20423;-64
2021/09/15 09:43:52;;;;;;;8.57;5.57;;;;;;;22.42;68.73;96498.91;5093697;28;20866;-63
2021/09/15 09:46:21;;;;;;;5.20;4.50;;;;;;;22.19;68.97;96495.34;5086147;28;20734;-65
2021/09/15 09:48:56;;;;;;;6.00;4.97;;;;;;;22.42;68.73;96498.09;5090415;28;20483;-66
2021/09/15 09:51:32;;;;;;;8.70;4.60;;;;;;;22.73;68.26;96491.28;5089185;28;20469;-66
2021/09/15 09:54:17;;;;;;;6.40;4.47;;;;;;;22.72;67.89;96495.00;5090479;28;20430;-65
2021/09/15 09:56:43;;;;;;;7.63;4.70;;;;;;;;;;5090642;28;20447;-66
2021/09/15 09:59:09;;;;;;;7.90;4.70;;;;;;;23.01;67.14;96495.63;5089805;28;20929;-66
2021/09/15 10:01:48;;;;;;;8.70;4.80;;;;;;;23.11;66.66;96504.84;5090172;28;20212;-67
2021/09/15 10:04:15;;;;;;;7.10;5.27;;;;;;;23.24;66.02;96503.66;5090345;28;20420;-66
2021/09/15 10:06:42;;;;;;;13.30;5.30;;;;;;;23.49;66.08;96496.97;5089020;28;20454;-66
2021/09/15 10:09:08;;;;;;;6.10;4.83;;;;;;;23.55;65.83;96506.66;5090145;28;20462;-66
2021/09/15 10:11:36;;;;;;;5.43;4.23;;;;;;;23.67;65.13;96491.28;5090668;28;20420;-65
2021/09/15 10:14:03;;;;;;;8.10;4.80;;;;;;;23.66;65.22;96489.66;5081259;28;20945;-66
2021/09/15 10:16:29;;;;;;;6.63;5.17;;;;;;;23.48;65.52;96493.50;5090718;28;20509;-67
2021/09/15 10:19:03;;;;;;;6.80;4.60;;;;;;;23.64;64.89;96497.13;5076584;28;20949;-68
2021/09/15 10:21:30;;;;;;;4.80;4.30;;;;;;;23.76;64.58;96495.09;5094714;28;20451;-66
2021/09/15 10:23:56;;;;;;;6.03;4.40;;;;;;;23.51;65.89;96498.31;5094961;28;20427;-65
2021/09/15 10:26:25;;;;;;;7.03;4.50;;;;;;;23.77;65.11;96488.69;5094453;28;20809;-67
2021/09/15 10:29:23;;;;;;;7.83;5.30;;;;;;;23.81;64.89;96486.28;5094048;28;20217;-66
2021/09/15 10:31:59;;;;;;;11.57;4.53;;;;;;;23.65;64.77;96490.72;5092154;28;20878;-65
2021/09/15 10:34:36;;;;;;;9.10;6.07;;;;;;;23.98;64.27;96490.75;5090393;28;20807;-67
2021/09/15 10:37:09;;;;;;;8.90;7.40;;;;;;;23.85;64.60;96495.44;5093316;28;20659;-66
2021/09/15 10:40:11;;;;;;;8.30;5.17;;;;;;;23.67;65.56;96493.94;5093850;28;20424;-65
2021/09/15 10:42:47;;;;;;;9.90;5.07;;;;;;;23.69;65.20;96494.47;5087658;28;20455;-66
2021/09/15 10:45:14;;;;;;;8.40;4.87;;;;;;;23.78;64.97;96487.63;5094020;28;21128;-66
2021/09/15 10:47:44;;;;;;;6.17;5.33;;;;;;;23.47;66.29;96491.88;5093877;28;20428;-65
2021/09/15 10:50:12;;;;;;;5.73;5.07;;;;;;;23.54;65.87;96483.66;5093965;28;20910;-65
2021/09/15 10:52:43;;;;;;;6.80;5.00;;;;;;;23.78;65.37;96476.91;5093089;28;20488;-68
2021/09/15 10:55:20;;;;;;;7.03;4.70;;;;;;;23.89;65.51;96475.13;5093827;28;20843;-66
2021/09/15 10:57:47;;;;;;;5.37;4.70;;;;;;;24.10;64.28;96478.00;5093946;28;20491;-66
2021/09/15 11:00:15;;;;;;;9.73;4.93;;;;;;;24.04;64.18;96477.16;5093653;28;20469;-67
2021/09/15 11:02:42;;;;;;;6.73;4.70;;;;;;;24.36;63.24;96484.31;5093967;28;20470;-65
2021/09/15 11:05:26;;;;;;;11.33;4.80;;;;;;;24.22;63.58;96481.28;5092261;28;20428;-67
2021/09/15 11:07:55;;;;;;;6.70;4.83;;;;;;;24.48;63.33;96461.88;5093177;28;20891;-65
2021/09/15 11:10:32;;;;;;;10.50;5.13;;;;;;;24.57;62.64;96467.53;5093521;28;20830;-67
2021/09/15 11:13:04;;;;;;;5.60;4.33;;;;;;;24.32;63.01;96477.84;5085209;28;20416;-67
2021/09/15 11:15:41;;;;;;;6.30;4.43;;;;;;;24.42;63.00;96473.63;5093794;28;20784;-66
2021/09/15 11:18:07;;;;;;;6.40;4.67;;;;;;;24.35;62.76;96469.31;5093674;28;20427;-66
2021/09/15 11:20:36;;;;;;;10.87;4.63;;;;;;;24.43;63.29;96467.22;5093692;28;20431;-67
2021/09/15 11:23:12;;;;;;;9.20;4.80;;;;;;;24.52;62.12;96471.00;5091325;28;20771;-66
2021/09/15 11:25:37;;;;;;;8.70;4.97;;;;;;;24.33;62.89;96473.31;5093288;28;20541;-67
2021/09/15 11:28:08;;;;;;;6.37;5.10;;;;;;;24.59;62.57;96474.25;5091463;28;20423;-65
2021/09/15 11:30:35;;;;;;;5.40;4.90;;;;;;;24.76;62.05;96467.94;5090312;28;20228;-65
2021/09/15 11:33:01;;;;;;;6.30;4.60;;;;;;;24.49;62.65;96458.13;5094394;28;20427;-67
2021/09/15 11:35:27;;;;;;;7.10;4.77;;;;;;;24.62;62.65;96454.97;5093013;28;20443;-67
2021/09/15 11:37:53;;;;;;;9.20;4.93;;;;;;;24.80;61.69;96461.78;5092704;28;20197;-66